createdAt,value
2022-11-14T00:00:13.978Z,4.20
2022-11-14T00:01:13.958Z,4.40
2022-11-14T00:02:13.970Z,4.30
2022-11-14T00:03:14.005Z,4.20
2022-11-14T00:04:13.929Z,4.00
2022-11-14T00:05:13.899Z,4.10
2022-11-14T00:06:13.888Z,4.40
2022-11-14T00:07:13.934Z,4.50
2022-11-14T00:08:13.906Z,4.80
2022-11-14T00:09:13.888Z,4.30
2022-11-14T00:10:13.868Z,4.20
2022-11-14T00:11:13.852Z,4.90
2022-11-14T00:12:13.832Z,4.00
2022-11-14T00:13:13.836Z,4.40
2022-11-14T00:14:13.788Z,4.70
2022-11-14T00:15:13.796Z,4.20
2022-11-14T00:16:13.786Z,4.30
2022-11-14T00:17:13.777Z,4.10
2022-11-14T00:18:13.745Z,4.30
2022-11-14T00:19:13.726Z,4.50
2022-11-14T00:20:13.736Z,4.00
2022-11-14T00:21:13.695Z,4.30
2022-11-14T00:22:13.685Z,4.40
2022-11-14T00:23:13.663Z,4.60
2022-11-14T00:24:13.664Z,4.00
2022-11-14T00:25:13.665Z,4.10
2022-11-14T00:26:13.635Z,4.50
2022-11-14T00:27:13.613Z,4.30
2022-11-14T00:28:13.634Z,4.50
2022-11-14T00:29:13.623Z,4.60
2022-11-14T00:30:13.583Z,4.30
2022-11-14T00:31:13.673Z,4.60
2022-11-14T00:32:13.564Z,4.40
2022-11-14T00:33:18.733Z,4.80
2022-11-14T00:34:14.533Z,4.70
2022-11-14T00:35:13.522Z,4.60
2022-11-14T00:36:13.542Z,4.30
2022-11-14T00:37:13.534Z,4.50
2022-11-14T00:38:13.500Z,4.70
2022-11-14T00:39:13.484Z,4.70
2022-11-14T00:40:13.452Z,4.50
2022-11-14T00:41:13.470Z,4.20
2022-11-14T00:42:13.457Z,4.70
2022-11-14T00:43:13.418Z,4.00
2022-11-14T00:44:13.409Z,4.30
2022-11-14T00:45:13.428Z,4.20
2022-11-14T00:46:13.400Z,5.30
2022-11-14T00:47:13.378Z,4.60
2022-11-14T00:48:13.348Z,4.80
2022-11-14T00:49:13.339Z,4.50
2022-11-14T00:50:13.346Z,4.90
2022-11-14T00:51:13.327Z,4.20
2022-11-14T00:52:13.323Z,4.10
2022-11-14T00:53:13.309Z,4.40
2022-11-14T00:54:13.266Z,4.40
2022-11-14T00:55:13.246Z,4.40
2022-11-14T00:56:13.246Z,4.10
2022-11-14T00:57:13.256Z,4.20
2022-11-14T00:58:13.227Z,4.60
2022-11-14T00:59:13.230Z,4.40
2022-11-14T01:00:13.209Z,4.70
2022-11-14T01:01:13.262Z,4.40
2022-11-14T01:02:13.196Z,4.70
2022-11-14T01:03:13.154Z,4.60
2022-11-14T01:04:13.155Z,4.20
2022-11-14T01:05:13.143Z,4.50
2022-11-14T01:06:13.114Z,4.30
2022-11-14T01:07:13.103Z,4.70
2022-11-14T01:08:13.137Z,4.40
2022-11-14T01:09:13.117Z,4.50
2022-11-14T01:10:13.055Z,4.70
2022-11-14T01:11:13.065Z,4.30
2022-11-14T01:12:13.034Z,4.30
2022-11-14T01:13:13.054Z,4.20
2022-11-14T01:14:13.032Z,4.50
2022-11-14T01:15:13.031Z,4.80
2022-11-14T01:16:12.992Z,4.70
2022-11-14T01:17:12.989Z,4.60
2022-11-14T01:18:13.000Z,4.90
2022-11-14T01:19:12.949Z,4.40
2022-11-14T01:20:12.945Z,4.10
2022-11-14T01:21:12.950Z,4.70
2022-11-14T01:22:12.912Z,4.70
2022-11-14T01:23:12.970Z,4.10
2022-11-14T01:24:12.931Z,4.40
2022-11-14T01:25:12.910Z,4.50
2022-11-14T01:26:12.859Z,4.30
2022-11-14T01:27:12.878Z,4.60
2022-11-14T01:28:12.839Z,4.30
2022-11-14T01:29:12.899Z,4.50
2022-11-14T01:30:12.850Z,4.30
2022-11-14T01:31:12.806Z,4.40
2022-11-14T01:32:12.799Z,4.40
2022-11-14T01:33:12.778Z,4.40
2022-11-14T01:34:12.781Z,4.50
2022-11-14T01:35:12.747Z,5.00
2022-11-14T01:36:12.748Z,5.20
2022-11-14T01:37:12.726Z,4.50
2022-11-14T01:38:12.707Z,4.30
2022-11-14T01:39:12.727Z,4.30
2022-11-14T01:40:12.686Z,4.40
2022-11-14T01:41:12.676Z,4.80
2022-11-14T01:42:12.657Z,4.30
2022-11-14T01:43:12.668Z,4.40
2022-11-14T01:44:12.625Z,4.20
2022-11-14T01:45:12.655Z,4.30
2022-11-14T01:46:12.636Z,4.50
2022-11-14T01:47:12.643Z,4.50
2022-11-14T01:48:12.574Z,4.60
2022-11-14T01:49:12.604Z,4.60
2022-11-14T01:50:12.624Z,4.40
2022-11-14T01:51:12.554Z,4.30
2022-11-14T01:52:12.568Z,4.60
2022-11-14T01:53:12.519Z,4.60
2022-11-14T01:54:12.513Z,4.60
2022-11-14T01:55:12.537Z,4.70
2022-11-14T01:56:12.493Z,4.60
2022-11-14T01:57:12.471Z,4.30
2022-11-14T01:58:12.481Z,4.30
2022-11-14T01:59:12.451Z,4.20
2022-11-14T02:00:12.471Z,4.10
2022-11-14T02:01:12.440Z,4.30
2022-11-14T02:02:12.420Z,4.60
2022-11-14T02:03:12.420Z,4.70
2022-11-14T02:04:15.211Z,4.30
2022-11-14T02:05:12.369Z,4.60
2022-11-14T02:06:12.369Z,4.40
2022-11-14T02:07:12.401Z,4.60
2022-11-14T02:08:12.330Z,4.60
2022-11-14T02:09:12.300Z,4.20
2022-11-14T02:10:12.299Z,4.80
2022-11-14T02:11:12.315Z,4.30
2022-11-14T02:12:12.269Z,4.60
2022-11-14T02:13:12.278Z,4.40
2022-11-14T02:14:12.260Z,4.50
2022-11-14T02:15:12.226Z,4.70
2022-11-14T02:16:12.255Z,5.50
2022-11-14T02:17:29.019Z,4.10
2022-11-14T02:18:13.206Z,4.50
2022-11-14T02:19:12.193Z,4.00
2022-11-14T02:20:12.224Z,4.60
2022-11-14T02:21:12.154Z,4.70
2022-11-14T02:22:12.166Z,4.60
2022-11-14T02:23:12.139Z,4.30
2022-11-14T02:24:12.136Z,4.40
2022-11-14T02:25:12.100Z,4.30
2022-11-14T02:26:12.117Z,4.20
2022-11-14T02:27:12.078Z,4.70
2022-11-14T02:28:12.113Z,4.10
2022-11-14T02:29:12.045Z,4.00
2022-11-14T02:30:12.077Z,4.50
2022-11-14T02:31:12.034Z,4.60
2022-11-14T02:32:12.051Z,4.00
2022-11-14T02:33:12.136Z,4.30
2022-11-14T02:34:12.004Z,4.30
2022-11-14T02:35:11.964Z,4.40
2022-11-14T02:36:11.975Z,4.40
2022-11-14T02:37:11.960Z,4.60
2022-11-14T02:38:11.972Z,4.40
2022-11-14T02:39:11.944Z,4.90
2022-11-14T02:40:11.921Z,4.40
2022-11-14T02:41:11.900Z,4.30
2022-11-14T02:42:11.931Z,4.50
2022-11-14T02:43:11.869Z,4.20
2022-11-14T02:44:11.876Z,4.40
2022-11-14T02:45:11.890Z,4.50
2022-11-14T02:46:11.834Z,4.40
2022-11-14T02:47:11.850Z,4.10
2022-11-14T02:48:11.810Z,4.20
2022-11-14T02:49:11.814Z,3.90
2022-11-14T02:50:11.769Z,4.60
2022-11-14T02:51:11.772Z,4.00
2022-11-14T02:52:11.779Z,4.40
2022-11-14T02:53:11.750Z,4.50
2022-11-14T02:54:11.761Z,4.80
2022-11-14T02:55:11.728Z,4.60
2022-11-14T02:56:11.748Z,4.60
2022-11-14T02:57:11.702Z,4.40
2022-11-14T02:58:11.718Z,4.80
2022-11-14T02:59:11.665Z,4.90
2022-11-14T03:00:14.909Z,4.50
2022-11-14T03:01:20.787Z,4.50
2022-11-14T03:02:12.646Z,5.20
2022-11-14T03:03:11.627Z,4.30
2022-11-14T03:04:11.663Z,4.60
2022-11-14T03:05:11.668Z,4.70
2022-11-14T03:06:11.602Z,4.50
2022-11-14T03:07:11.618Z,4.40
2022-11-14T03:08:11.605Z,4.40
2022-11-14T03:09:11.585Z,4.60
2022-11-14T03:10:11.585Z,5.60
2022-11-14T03:11:11.535Z,4.30
2022-11-14T03:12:11.535Z,5.20
2022-11-14T03:13:11.505Z,4.60
2022-11-14T03:14:11.472Z,4.90
2022-11-14T03:15:11.513Z,4.60
2022-11-14T03:16:11.493Z,4.70
2022-11-14T03:17:11.434Z,4.10
2022-11-14T03:18:11.434Z,4.40
2022-11-14T03:19:11.404Z,4.70
2022-11-14T03:20:11.437Z,4.80
2022-11-14T03:21:11.434Z,4.60
2022-11-14T03:22:11.373Z,5.00
2022-11-14T03:23:11.395Z,4.70
2022-11-14T03:24:11.361Z,4.20
2022-11-14T03:25:11.341Z,4.10
2022-11-14T03:26:11.312Z,4.50
2022-11-14T03:27:11.323Z,4.80
2022-11-14T03:28:11.331Z,4.50
2022-11-14T03:29:11.301Z,4.50
2022-11-14T03:30:11.280Z,4.50
2022-11-14T03:31:11.256Z,4.30
2022-11-14T03:32:11.261Z,4.40
2022-11-14T03:33:11.227Z,4.60
2022-11-14T03:34:11.209Z,4.60
2022-11-14T03:35:11.209Z,4.70
2022-11-14T03:36:11.182Z,4.60
2022-11-14T03:37:11.180Z,4.60
2022-11-14T03:38:11.179Z,4.20
2022-11-14T03:39:11.149Z,4.60
2022-11-14T03:40:11.141Z,4.80
2022-11-14T03:41:11.119Z,4.80
2022-11-14T03:42:11.108Z,5.10
2022-11-14T03:43:11.109Z,4.10
2022-11-14T03:44:11.087Z,4.30
2022-11-14T03:45:11.089Z,5.00
2022-11-14T03:46:11.060Z,5.40
2022-11-14T03:47:11.046Z,4.70
2022-11-14T03:48:11.047Z,4.30
2022-11-14T03:49:11.026Z,4.80
2022-11-14T03:50:11.015Z,5.20
2022-11-14T03:51:11.006Z,4.90
2022-11-14T03:52:10.989Z,5.30
2022-11-14T03:53:11.000Z,5.40
2022-11-14T03:54:10.955Z,5.50
2022-11-14T03:55:10.943Z,5.40
2022-11-14T03:56:10.925Z,5.50
2022-11-14T03:57:10.932Z,5.10
2022-11-14T03:58:10.921Z,5.10
2022-11-14T03:59:10.896Z,5.30
2022-11-14T04:00:10.895Z,5.40
2022-11-14T04:01:10.942Z,4.60
2022-11-14T04:02:10.856Z,5.70
2022-11-14T04:03:10.864Z,5.80
2022-11-14T04:04:10.832Z,5.20
2022-11-14T04:05:10.831Z,5.80
2022-11-14T04:06:10.804Z,4.90
2022-11-14T04:07:10.831Z,5.70
2022-11-14T04:08:10.801Z,5.50
2022-11-14T04:09:10.781Z,5.20
2022-11-14T04:10:10.754Z,5.80
2022-11-14T04:11:10.745Z,5.60
2022-11-14T04:12:15.541Z,5.80
2022-11-14T04:13:11.736Z,5.40
2022-11-14T04:14:10.705Z,5.20
2022-11-14T04:15:10.702Z,5.60
2022-11-14T04:16:10.683Z,5.20
2022-11-14T04:17:10.673Z,5.70
2022-11-14T04:18:10.661Z,5.20
2022-11-14T04:19:10.643Z,5.50
2022-11-14T04:20:10.629Z,5.10
2022-11-14T04:21:10.623Z,6.20
2022-11-14T04:22:10.609Z,5.60
2022-11-14T04:23:10.610Z,5.40
2022-11-14T04:24:11.284Z,5.10
2022-11-14T04:25:10.589Z,5.70
2022-11-14T04:26:10.560Z,5.30
2022-11-14T04:27:10.548Z,5.30
2022-11-14T04:28:10.539Z,6.10
2022-11-14T04:29:10.518Z,5.00
2022-11-14T04:30:10.498Z,5.70
2022-11-14T04:31:10.497Z,5.30
2022-11-14T04:32:10.479Z,5.40
2022-11-14T04:33:10.477Z,5.40
2022-11-14T04:34:10.448Z,5.50
2022-11-14T04:35:10.450Z,5.70
2022-11-14T04:36:10.431Z,5.60
2022-11-14T04:37:10.416Z,5.60
2022-11-14T04:38:10.416Z,6.00
2022-11-14T04:39:10.387Z,5.50
2022-11-14T04:40:10.375Z,6.10
2022-11-14T04:41:10.372Z,6.20
2022-11-14T04:42:10.344Z,6.50
2022-11-14T04:43:10.356Z,6.30
2022-11-14T04:44:10.323Z,6.20
2022-11-14T04:45:10.341Z,5.80
2022-11-14T04:46:10.304Z,5.60
2022-11-14T04:47:10.292Z,6.10
2022-11-14T04:48:10.292Z,6.30
2022-11-14T04:49:10.252Z,5.90
2022-11-14T04:50:10.243Z,6.00
2022-11-14T04:51:10.232Z,5.70
2022-11-14T04:52:10.225Z,5.60
2022-11-14T04:53:10.231Z,6.20
2022-11-14T04:54:10.288Z,6.20
2022-11-14T04:55:10.180Z,5.60
2022-11-14T04:56:10.180Z,5.70
2022-11-14T04:57:10.160Z,5.70
2022-11-14T04:58:10.163Z,5.80
2022-11-14T04:59:10.150Z,5.50
2022-11-14T05:00:10.130Z,6.20
2022-11-14T05:01:10.172Z,6.10
2022-11-14T05:02:10.090Z,5.60
2022-11-14T05:03:10.111Z,6.10
2022-11-14T05:04:10.068Z,5.70
2022-11-14T05:05:10.072Z,5.60
2022-11-14T05:06:10.049Z,6.30
2022-11-14T05:07:10.075Z,6.20
2022-11-14T05:08:10.039Z,6.10
2022-11-14T05:09:10.013Z,6.40
2022-11-14T05:10:09.999Z,6.10
2022-11-14T05:11:09.988Z,6.00
2022-11-14T05:12:09.966Z,6.00
2022-11-14T05:13:10.077Z,6.40
2022-11-14T05:14:09.946Z,6.00
2022-11-14T05:15:09.936Z,5.80
2022-11-14T05:16:09.916Z,6.40
2022-11-14T05:17:09.912Z,5.50
2022-11-14T05:18:09.907Z,6.70
2022-11-14T05:19:09.943Z,6.40
2022-11-14T05:20:09.895Z,5.80
2022-11-14T05:21:09.856Z,6.00
2022-11-14T05:22:09.835Z,6.00
2022-11-14T05:23:09.855Z,6.70
2022-11-14T05:24:09.814Z,6.10
2022-11-14T05:25:09.815Z,6.80
2022-11-14T05:26:09.785Z,6.10
2022-11-14T05:27:09.786Z,6.30
2022-11-14T05:28:09.792Z,7.60
2022-11-14T05:29:09.753Z,6.10
2022-11-14T05:30:09.753Z,6.50
2022-11-14T05:31:09.750Z,6.30
2022-11-14T05:32:15.093Z,6.20
2022-11-14T05:33:10.922Z,6.00
2022-11-14T05:34:09.690Z,6.50
2022-11-14T05:35:09.674Z,6.10
2022-11-14T05:36:09.670Z,6.60
2022-11-14T05:37:09.659Z,6.00
2022-11-14T05:38:09.647Z,6.00
2022-11-14T05:39:09.640Z,5.60
2022-11-14T05:40:09.618Z,6.70
2022-11-14T05:41:09.600Z,6.70
2022-11-14T05:42:09.592Z,6.30
2022-11-14T05:43:09.573Z,6.30
2022-11-14T05:44:09.559Z,6.20
2022-11-14T05:45:09.570Z,6.00
2022-11-14T05:46:09.541Z,6.20
2022-11-14T05:47:09.528Z,6.30
2022-11-14T05:48:09.509Z,6.20
2022-11-14T05:49:09.499Z,6.10
2022-11-14T05:50:09.478Z,5.90
2022-11-14T05:51:09.499Z,6.30
2022-11-14T05:52:09.461Z,5.90
2022-11-14T05:53:09.456Z,6.10
2022-11-14T05:54:09.436Z,6.60
2022-11-14T05:55:09.427Z,6.00
2022-11-14T05:56:09.417Z,5.70
2022-11-14T05:57:09.426Z,6.00
2022-11-14T05:58:09.386Z,5.50
2022-11-14T05:59:09.377Z,5.20
2022-11-14T06:00:09.359Z,5.50
2022-11-14T06:01:09.357Z,5.90
2022-11-14T06:02:09.400Z,5.20
2022-11-14T06:03:09.336Z,6.00
2022-11-14T06:04:09.316Z,5.30
2022-11-14T06:05:09.305Z,5.10
2022-11-14T06:06:09.282Z,5.20
2022-11-14T06:07:09.330Z,5.30
2022-11-14T06:08:09.266Z,5.30
2022-11-14T06:09:09.263Z,5.40
2022-11-14T06:10:09.233Z,5.30
2022-11-14T06:11:09.227Z,5.10
2022-11-14T06:12:09.222Z,5.20
2022-11-14T06:13:09.196Z,5.40
2022-11-14T06:14:10.974Z,4.80
2022-11-14T06:15:09.194Z,4.50
2022-11-14T06:16:09.167Z,5.30
2022-11-14T06:17:09.150Z,4.70
2022-11-14T06:18:09.141Z,4.70
2022-11-14T06:19:09.122Z,4.90
2022-11-14T06:20:09.103Z,5.00
2022-11-14T06:21:09.121Z,5.10
2022-11-14T06:22:09.080Z,4.80
2022-11-14T06:23:09.081Z,4.70
2022-11-14T06:24:09.049Z,5.40
2022-11-14T06:25:09.040Z,4.30
2022-11-14T06:26:09.040Z,4.80
2022-11-14T06:27:09.010Z,4.90
2022-11-14T06:28:08.999Z,5.50
2022-11-14T06:29:09.030Z,4.80
2022-11-14T06:30:08.978Z,5.20
2022-11-14T06:31:09.009Z,5.10
2022-11-14T06:32:08.958Z,5.60
2022-11-14T06:33:08.959Z,5.50
2022-11-14T06:34:08.966Z,5.70
2022-11-14T06:35:08.920Z,4.70
2022-11-14T06:36:08.913Z,4.90
2022-11-14T06:37:08.886Z,5.50
2022-11-14T06:38:08.876Z,4.80
2022-11-14T06:39:08.867Z,5.30
2022-11-14T06:40:08.846Z,5.20
2022-11-14T06:41:08.865Z,5.30
2022-11-14T06:42:08.828Z,5.40
2022-11-14T06:43:08.815Z,5.50
2022-11-14T06:44:08.814Z,5.10
2022-11-14T06:45:08.784Z,5.10
2022-11-14T06:46:08.775Z,4.90
2022-11-14T06:47:08.774Z,4.90
2022-11-14T06:48:08.745Z,4.80
2022-11-14T06:49:08.734Z,5.00
2022-11-14T06:50:08.730Z,5.70
2022-11-14T06:51:08.711Z,5.00
2022-11-14T06:52:08.704Z,5.00
2022-11-14T06:53:08.693Z,5.40
2022-11-14T06:54:08.668Z,5.00
2022-11-14T06:55:08.652Z,4.60
2022-11-14T06:56:08.642Z,4.90
2022-11-14T06:57:08.661Z,5.10
2022-11-14T06:58:08.619Z,4.80
2022-11-14T06:59:08.611Z,5.30
2022-11-14T07:00:08.593Z,4.80
2022-11-14T07:01:08.590Z,4.80
2022-11-14T07:02:08.561Z,4.80
2022-11-14T07:03:08.654Z,5.10
2022-11-14T07:04:08.540Z,5.30
2022-11-14T07:05:08.540Z,4.90
2022-11-14T07:06:08.528Z,4.90
2022-11-14T07:07:08.540Z,4.90
2022-11-14T07:08:08.499Z,4.70
2022-11-14T07:09:08.488Z,5.30
2022-11-14T07:10:08.468Z,5.20
2022-11-14T07:11:08.451Z,4.60
2022-11-14T07:12:08.441Z,5.40
2022-11-14T07:13:08.447Z,5.00
2022-11-14T07:14:08.418Z,5.00
2022-11-14T07:15:08.408Z,5.40
2022-11-14T07:16:08.386Z,5.50
2022-11-14T07:17:08.397Z,5.60
2022-11-14T07:18:08.369Z,5.80
2022-11-14T07:19:08.365Z,5.40
2022-11-14T07:20:08.343Z,5.50
2022-11-14T07:21:08.326Z,5.40
2022-11-14T07:22:08.314Z,5.10
2022-11-14T07:23:08.313Z,5.80
2022-11-14T07:24:08.311Z,5.70
2022-11-14T07:25:08.274Z,5.30
2022-11-14T07:26:08.265Z,5.70
2022-11-14T07:27:08.254Z,6.10
2022-11-14T07:28:08.233Z,6.00
2022-11-14T07:29:08.254Z,6.10
2022-11-14T07:30:08.214Z,6.20
2022-11-14T07:31:08.197Z,6.30
2022-11-14T07:32:08.196Z,6.60
2022-11-14T07:33:08.192Z,6.30
2022-11-14T07:34:08.173Z,6.00
2022-11-14T07:35:08.150Z,6.50
2022-11-14T07:36:08.133Z,5.90
2022-11-14T07:37:08.129Z,5.70
2022-11-14T07:38:08.112Z,6.10
2022-11-14T07:39:08.101Z,5.60
2022-11-14T07:40:08.091Z,5.20
2022-11-14T07:41:08.070Z,5.80
2022-11-14T07:42:08.061Z,5.20
2022-11-14T07:43:08.041Z,5.60
2022-11-14T07:44:08.042Z,5.20
2022-11-14T07:45:08.009Z,5.10
2022-11-14T07:46:08.000Z,5.30
2022-11-14T07:47:08.009Z,4.90
2022-11-14T07:48:07.999Z,5.20
2022-11-14T07:49:07.980Z,5.00
2022-11-14T07:50:07.959Z,5.20
2022-11-14T07:51:07.941Z,6.30
2022-11-14T07:52:07.935Z,5.60
2022-11-14T07:53:07.929Z,6.00
2022-11-14T07:54:07.917Z,5.50
2022-11-14T07:55:07.894Z,5.40
2022-11-14T07:56:07.879Z,5.50
2022-11-14T07:57:07.867Z,5.70
2022-11-14T07:58:07.868Z,5.50
2022-11-14T07:59:07.846Z,5.40
2022-11-14T08:00:07.836Z,5.20
2022-11-14T08:01:07.899Z,6.20
2022-11-14T08:02:07.804Z,5.20
2022-11-14T08:03:07.786Z,6.00
2022-11-14T08:04:07.786Z,6.00
2022-11-14T08:05:07.772Z,5.80
2022-11-14T08:06:07.764Z,5.80
2022-11-14T08:07:07.840Z,5.70
2022-11-14T08:08:07.725Z,5.70
2022-11-14T08:09:07.835Z,6.00
2022-11-14T08:10:07.709Z,5.70
2022-11-14T08:11:07.693Z,5.90
2022-11-14T08:12:07.663Z,5.50
2022-11-14T08:14:08.672Z,5.40
2022-11-14T08:15:07.632Z,5.70
2022-11-14T08:16:12.466Z,5.50
2022-11-14T08:17:08.601Z,5.60
2022-11-14T08:18:07.601Z,5.50
2022-11-14T08:19:07.592Z,5.50
2022-11-14T08:20:07.582Z,6.10
2022-11-14T08:21:07.559Z,5.50
2022-11-14T08:22:07.542Z,6.30
2022-11-14T08:23:07.538Z,5.90
2022-11-14T08:24:07.530Z,5.90
2022-11-14T08:25:07.500Z,6.30
2022-11-14T08:26:07.503Z,6.20
2022-11-14T08:27:07.483Z,5.50
2022-11-14T08:28:07.469Z,6.70
2022-11-14T08:29:07.462Z,5.70
2022-11-14T08:30:07.448Z,5.80
2022-11-14T08:31:07.428Z,5.90
2022-11-14T08:32:07.429Z,5.70
2022-11-14T08:33:07.401Z,6.10
2022-11-14T08:34:07.400Z,5.80
2022-11-14T08:35:07.380Z,5.90
2022-11-14T08:36:07.370Z,5.90
2022-11-14T08:37:07.346Z,6.50
2022-11-14T08:38:07.346Z,6.10
2022-11-14T08:39:07.333Z,6.00
2022-11-14T08:40:07.326Z,5.30
2022-11-14T08:41:07.299Z,6.40
2022-11-14T08:42:07.330Z,6.10
2022-11-14T08:43:07.275Z,6.40
2022-11-14T08:44:07.283Z,6.60
2022-11-14T08:45:07.266Z,5.40
2022-11-14T08:46:07.237Z,6.50
2022-11-14T08:47:07.224Z,6.00
2022-11-14T08:48:07.215Z,6.30
2022-11-14T08:49:07.208Z,6.20
2022-11-14T08:50:07.196Z,5.90
2022-11-14T08:51:07.165Z,6.50
2022-11-14T08:52:08.531Z,6.40
2022-11-14T08:53:07.143Z,5.90
2022-11-14T08:54:07.174Z,6.20
2022-11-14T08:55:07.125Z,6.70
2022-11-14T08:56:07.113Z,6.80
2022-11-14T08:57:07.104Z,7.30
2022-11-14T08:58:07.092Z,6.70
2022-11-14T08:59:07.088Z,6.50
2022-11-14T09:00:07.050Z,6.40
2022-11-14T09:01:07.072Z,7.10
2022-11-14T09:02:07.031Z,7.70
2022-11-14T09:03:07.038Z,6.40
2022-11-14T09:04:07.129Z,7.10
2022-11-14T09:05:06.990Z,6.40
2022-11-14T09:06:06.979Z,6.90
2022-11-14T09:07:07.058Z,6.80
2022-11-14T09:08:06.949Z,6.60
2022-11-14T09:09:06.972Z,7.30
2022-11-14T09:10:06.929Z,8.30
2022-11-14T09:11:09.244Z,6.90
2022-11-14T09:12:06.899Z,6.90
2022-11-14T09:13:06.888Z,7.40
2022-11-14T09:14:06.887Z,7.30
2022-11-14T09:15:06.896Z,7.30
2022-11-14T09:16:06.846Z,7.30
2022-11-14T09:17:06.837Z,7.20
2022-11-14T09:18:06.829Z,7.20
2022-11-14T09:19:06.837Z,6.80
2022-11-14T09:20:06.827Z,7.20
2022-11-14T09:21:06.779Z,6.50
2022-11-14T09:22:06.777Z,7.00
2022-11-14T09:23:06.757Z,7.60
2022-11-14T09:24:06.755Z,7.30
2022-11-14T09:25:06.757Z,7.50
2022-11-14T09:26:06.740Z,7.70
2022-11-14T09:27:06.710Z,6.90
2022-11-14T09:28:06.685Z,7.10
2022-11-14T09:29:06.702Z,7.20
2022-11-14T09:30:06.663Z,7.30
2022-11-14T09:31:06.668Z,7.30
2022-11-14T09:32:06.649Z,7.90
2022-11-14T09:33:11.510Z,6.60
2022-11-14T09:34:07.635Z,7.60
2022-11-14T09:35:06.603Z,7.90
2022-11-14T09:36:06.584Z,7.00
2022-11-14T09:37:06.604Z,7.60
2022-11-14T09:38:06.557Z,7.60
2022-11-14T09:39:06.575Z,7.10
2022-11-14T09:40:06.550Z,7.80
2022-11-14T09:41:06.531Z,7.30
2022-11-14T09:42:06.512Z,7.40
2022-11-14T09:43:06.495Z,8.30
2022-11-14T09:44:06.491Z,8.10
2022-11-14T09:45:06.481Z,7.30
2022-11-14T09:46:06.461Z,8.10
2022-11-14T09:47:06.478Z,8.10
2022-11-14T09:48:06.431Z,8.10
2022-11-14T09:49:06.452Z,7.60
2022-11-14T09:50:06.410Z,7.60
2022-11-14T09:51:06.391Z,8.30
2022-11-14T09:52:06.387Z,7.10
2022-11-14T09:53:06.361Z,7.90
2022-11-14T09:54:06.361Z,8.60
2022-11-14T09:55:06.344Z,8.10
2022-11-14T09:56:06.330Z,8.50
2022-11-14T09:57:06.319Z,8.70
2022-11-14T09:58:06.302Z,8.60
2022-11-14T09:59:06.311Z,8.10
2022-11-14T10:00:06.278Z,8.20
2022-11-14T10:01:09.347Z,8.70
2022-11-14T10:02:06.309Z,7.80
2022-11-14T10:03:06.235Z,7.60
2022-11-14T10:04:09.467Z,7.60
2022-11-14T10:05:06.227Z,8.00
2022-11-14T10:06:06.203Z,7.50
2022-11-14T10:07:06.230Z,8.80
2022-11-14T10:08:06.168Z,8.10
2022-11-14T10:09:06.175Z,8.50
2022-11-14T10:10:06.149Z,8.60
2022-11-14T10:11:06.131Z,7.80
2022-11-14T10:12:06.117Z,8.30
2022-11-14T10:13:06.107Z,8.50
2022-11-14T10:14:06.105Z,8.10
2022-11-14T10:15:06.085Z,8.10
2022-11-14T10:16:06.074Z,8.50
2022-11-14T10:17:10.300Z,8.60
2022-11-14T10:18:06.034Z,8.90
2022-11-14T10:19:06.731Z,8.30
2022-11-14T10:20:06.014Z,8.20
2022-11-14T10:21:06.029Z,9.10
2022-11-14T10:22:05.984Z,8.10
2022-11-14T10:23:05.979Z,9.00
2022-11-14T10:24:05.987Z,8.10
2022-11-14T10:25:05.954Z,8.10
2022-11-14T10:26:06.034Z,7.50
2022-11-14T10:27:05.933Z,7.20
2022-11-14T10:28:05.914Z,7.70
2022-11-14T10:29:05.924Z,7.80
2022-11-14T10:30:05.883Z,7.30
2022-11-14T10:31:05.873Z,7.80
2022-11-14T10:32:05.863Z,7.60
2022-11-14T10:33:05.842Z,6.70
2022-11-14T10:34:05.853Z,7.60
2022-11-14T10:35:05.821Z,7.20
2022-11-14T10:36:05.821Z,7.70
2022-11-14T10:37:05.809Z,6.90
2022-11-14T10:38:05.784Z,7.30
2022-11-14T10:39:05.787Z,7.70
2022-11-14T10:40:05.766Z,7.60
2022-11-14T10:41:05.760Z,6.90
2022-11-14T10:42:07.922Z,6.80
2022-11-14T10:43:05.728Z,6.80
2022-11-14T10:44:05.720Z,6.70
2022-11-14T10:45:05.700Z,7.20
2022-11-14T10:46:05.680Z,6.70
2022-11-14T10:47:05.679Z,7.10
2022-11-14T10:48:05.659Z,6.70
2022-11-14T10:49:05.660Z,7.50
2022-11-14T10:50:05.628Z,7.20
2022-11-14T10:51:05.636Z,7.50
2022-11-14T10:52:05.598Z,7.00
2022-11-14T10:53:05.597Z,6.90
2022-11-14T10:54:05.598Z,7.70
2022-11-14T10:55:05.558Z,8.10
2022-11-14T10:56:05.703Z,6.90
2022-11-14T10:57:05.538Z,7.10
2022-11-14T10:58:05.535Z,7.60
2022-11-14T10:59:05.516Z,7.10
2022-11-14T11:00:05.498Z,6.80
2022-11-14T11:01:05.516Z,7.10
2022-11-14T11:02:05.476Z,7.00
2022-11-14T11:03:05.458Z,7.30
2022-11-14T11:04:05.544Z,7.50
2022-11-14T11:05:05.446Z,7.40
2022-11-14T11:06:05.438Z,6.60
2022-11-14T11:07:05.551Z,6.70
2022-11-14T11:08:42.030Z,7.20
2022-11-14T11:09:06.641Z,7.40
2022-11-14T11:10:05.454Z,6.90
2022-11-14T11:11:05.425Z,7.10
2022-11-14T11:12:05.354Z,6.90
2022-11-14T11:13:05.420Z,6.80
2022-11-14T11:14:05.342Z,6.30
2022-11-14T11:15:05.303Z,6.50
2022-11-14T11:16:05.294Z,6.60
2022-11-14T11:17:05.283Z,6.00
2022-11-14T11:18:05.288Z,6.20
2022-11-14T11:19:05.264Z,6.50
2022-11-14T11:20:07.598Z,6.80
2022-11-14T11:21:05.296Z,6.20
2022-11-14T11:22:05.221Z,6.30
2022-11-14T11:23:05.201Z,6.80
2022-11-14T11:24:05.208Z,7.10
2022-11-14T11:25:05.184Z,6.50
2022-11-14T11:26:05.176Z,6.70
2022-11-14T11:27:05.150Z,7.00
2022-11-14T11:28:05.151Z,6.50
2022-11-14T11:29:05.151Z,5.40
2022-11-14T11:30:05.130Z,6.20
2022-11-14T11:31:05.102Z,5.80
2022-11-14T11:32:05.085Z,6.20
2022-11-14T11:33:05.108Z,6.00
2022-11-14T11:34:05.072Z,5.70
2022-11-14T11:35:05.048Z,6.10
2022-11-14T11:36:05.048Z,5.90
2022-11-14T11:37:05.018Z,5.50
2022-11-14T11:38:05.019Z,6.00
2022-11-14T11:39:05.008Z,5.90
2022-11-14T11:40:04.997Z,6.20
2022-11-14T11:41:04.967Z,6.10
2022-11-14T11:42:10.237Z,6.00
2022-11-14T11:43:37.342Z,6.20
2022-11-14T11:44:05.937Z,5.90
2022-11-14T11:45:04.916Z,5.80
2022-11-14T11:46:04.912Z,6.20
2022-11-14T11:47:04.897Z,6.00
2022-11-14T11:48:04.910Z,5.50
2022-11-14T11:49:04.866Z,6.40
2022-11-14T11:50:04.865Z,6.00
2022-11-14T11:51:04.848Z,6.20
2022-11-14T11:52:04.836Z,6.80
2022-11-14T11:53:04.816Z,5.90
2022-11-14T11:54:04.855Z,5.80
2022-11-14T11:55:04.786Z,6.00
2022-11-14T11:56:04.783Z,6.30
2022-11-14T11:57:04.766Z,6.00
2022-11-14T11:58:04.763Z,5.70
2022-11-14T11:59:04.761Z,6.10
2022-11-14T12:00:04.745Z,6.00
2022-11-14T12:01:04.703Z,5.40
2022-11-14T12:02:04.778Z,5.70
2022-11-14T12:03:04.803Z,6.30
2022-11-14T12:04:04.758Z,5.60
2022-11-14T12:05:04.679Z,6.20
2022-11-14T12:06:04.672Z,5.90
2022-11-14T12:07:04.685Z,5.40
2022-11-14T12:08:04.684Z,5.90
2022-11-14T12:09:04.611Z,5.70
2022-11-14T12:10:10.179Z,5.10
2022-11-14T12:11:05.585Z,6.10
2022-11-14T12:12:04.583Z,5.70
2022-11-14T12:13:04.556Z,6.00
2022-11-14T12:14:04.551Z,5.60
2022-11-14T12:15:04.555Z,5.50
2022-11-14T12:16:07.685Z,5.70
2022-11-14T12:17:05.500Z,6.20
2022-11-14T12:18:04.502Z,5.10
2022-11-14T12:19:04.480Z,5.30
2022-11-14T12:20:04.482Z,5.60
2022-11-14T12:21:04.451Z,5.50
2022-11-14T12:22:04.449Z,4.70
2022-11-14T12:23:04.430Z,5.10
2022-11-14T12:24:04.433Z,5.20
2022-11-14T12:25:04.400Z,5.30
2022-11-14T12:26:04.438Z,5.20
2022-11-14T12:27:04.374Z,5.10
2022-11-14T12:28:04.486Z,5.50
2022-11-14T12:29:04.352Z,5.70
2022-11-14T12:30:04.358Z,5.30
2022-11-14T12:31:04.349Z,5.20
2022-11-14T12:32:04.319Z,5.10
2022-11-14T12:33:04.305Z,5.60
2022-11-14T12:34:04.289Z,5.30
2022-11-14T12:35:04.304Z,4.90
2022-11-14T12:36:04.288Z,5.10
2022-11-14T12:37:04.324Z,4.60
2022-11-14T12:38:04.237Z,5.10
2022-11-14T12:39:04.218Z,5.40
2022-11-14T12:40:04.207Z,5.40
2022-11-14T12:41:04.206Z,4.50
2022-11-14T12:42:04.205Z,4.80
2022-11-14T12:43:04.173Z,5.00
2022-11-14T12:44:04.179Z,5.10
2022-11-14T12:45:04.135Z,4.60
2022-11-14T12:46:04.135Z,4.80
2022-11-14T12:47:04.130Z,4.70
2022-11-14T12:48:04.106Z,5.20
2022-11-14T12:49:04.087Z,4.30
2022-11-14T12:50:04.074Z,4.60
2022-11-14T12:51:04.120Z,4.40
2022-11-14T12:52:04.065Z,5.00
2022-11-14T12:53:04.034Z,4.20
2022-11-14T12:54:04.043Z,4.40
2022-11-14T12:55:04.039Z,4.50
2022-11-14T12:56:04.005Z,4.60
2022-11-14T12:57:04.016Z,4.60
2022-11-14T12:58:03.972Z,4.10
2022-11-14T12:59:03.965Z,4.60
2022-11-14T13:00:03.954Z,4.20
2022-11-14T13:01:03.980Z,4.30
2022-11-14T13:02:03.933Z,3.80
2022-11-14T13:03:03.936Z,4.70
2022-11-14T13:04:03.904Z,4.60
2022-11-14T13:05:03.892Z,4.60
2022-11-14T13:06:03.872Z,4.70
2022-11-14T13:07:03.869Z,5.10
2022-11-14T13:08:03.862Z,4.50
2022-11-14T13:09:03.840Z,4.90
2022-11-14T13:10:03.831Z,4.40
2022-11-14T13:11:03.803Z,4.50
2022-11-14T13:12:03.802Z,4.40
2022-11-14T13:13:03.789Z,4.60
2022-11-14T13:14:03.773Z,4.20
2022-11-14T13:15:03.760Z,4.40
2022-11-14T13:16:03.771Z,4.40
2022-11-14T13:17:03.736Z,4.90
2022-11-14T13:18:03.753Z,4.70
2022-11-14T13:19:03.708Z,5.40